KKY weather

Kilkenny Airport
Kilkenny, County Kilkenny, Ireland

Public forecast

Using degrees Celsius for public forecast. Weather courtesy of forecast.io.

Closest aviation weather report (METAR) to Kilkenny Airport

Closest report is Waterford Airport, 28.9 nm (53.5 km) SSE. Retrieved 2020/07/13 08:00 UTC (9 minutes ago):

EIWF 130800Z 25008KT 210V300 8000 RA BKN003 14/14 Q1022 R21/2/////

Closest aviation forecast (TAF) to Kilkenny Airport

Closest forecast is Dublin Airport, 59.3 nm (109.8 km) NE. Retrieved 2020/07/13 06:09 UTC (2 hours ago):

TAF EIDW 130500Z 1306/1406 23012KT 9999 -RA BKN012 TEMPO 1306/1309 3000 -RADZ BKN005 PROB40 TEMPO 1306/1309 BKN003 PROB30 TEMPO 1306/1309 1500 BECMG 1308/1310 27010KT BECMG 1309/1311 BKN020 BECMG 1313/1315 30010KT